Time;durP1;ratioP1;P1;durP2;ratioP2;P2;SDS_P1;SDS_P2;PMS_P1;PMS_P2;Temp;Humidity;BMP_temperature;BMP_pressure;BME280_temperature;BME280_humidity;BME280_pressure;Samples;Min_cycle;Max_cycle;Signal;HPM_P1;HPM_P2
2022/12/09 06:19:54;;;;;;;24.65;11.05;;;;;;;1.49;100.00;100070.52;1778078;79;23273;-46
2022/12/09 06:22:21;;;;;;;26.73;10.30;;;;;;;1.54;100.00;100072.41;1752632;81;21015;-47
2022/12/09 06:24:47;;;;;;;18.00;10.23;;;;;;;1.58;100.00;100070.83;1778602;79;21040;-47
2022/12/09 06:27:14;;;;;;;25.02;9.50;;;;;;;1.64;100.00;100064.98;1779006;79;20996;-39
2022/12/09 06:29:41;;;;;;;16.48;10.45;;;;;;;1.68;100.00;100062.95;1741722;80;21060;-39
2022/12/09 06:32:10;;;;;;;23.83;9.73;;;;;;;1.72;100.00;100056.66;1750539;80;21816;-39
2022/12/09 06:34:39;;;;;;;15.00;9.38;;;;;;;1.79;100.00;100057.72;1720284;80;21590;-48
2022/12/09 06:37:07;;;;;;;19.90;9.68;;;;;;;1.82;100.00;100051.38;1757373;81;21283;-48
2022/12/09 06:39:34;;;;;;;27.65;9.33;;;;;;;1.87;100.00;100048.53;1759599;81;21481;-48
2022/12/09 06:42:03;;;;;;;18.27;8.98;;;;;;;1.92;100.00;100049.97;1755664;80;20939;-49
2022/12/09 06:44:36;;;;;;;16.77;9.65;;;;;;;1.98;100.00;100048.45;1759991;79;21107;-48
2022/12/09 06:47:26;;;;;;;14.25;8.55;;;;;;;2.04;100.00;100047.76;1761231;81;21005;-48
2022/12/09 06:49:56;;;;;;;14.33;8.33;;;;;;;2.11;100.00;100044.11;1758924;81;21110;-48
2022/12/09 06:52:21;;;;;;;15.23;8.03;;;;;;;2.15;100.00;100035.18;1745181;80;21061;-48
2022/12/09 06:54:48;;;;;;;10.85;6.85;;;;;;;2.17;100.00;100038.66;1749644;80;21029;-48
2022/12/09 06:57:15;;;;;;;10.82;7.10;;;;;;;2.18;100.00;100036.55;1747686;80;20960;-48
2022/12/09 06:59:42;;;;;;;14.78;7.55;;;;;;;2.13;100.00;100035.11;1775588;78;21454;-48
2022/12/09 07:02:10;;;;;;;18.30;8.18;;;;;;;2.12;100.00;100025.20;1777321;78;21026;-49
2022/12/09 07:04:37;;;;;;;32.45;7.65;;;;;;;2.16;100.00;100021.44;1741842;80;21108;-48
2022/12/09 07:07:03;;;;;;;13.15;8.53;;;;;;;2.20;100.00;100023.25;1778419;80;20986;-48
2022/12/09 07:09:30;;;;;;;13.28;8.08;;;;;;;2.21;100.00;100024.61;1766071;80;21051;-48
2022/12/09 07:11:57;;;;;;;12.30;7.12;;;;;;;2.25;100.00;100025.14;1774273;80;20996;-48
2022/12/09 07:14:24;;;;;;;11.70;7.03;;;;;;;2.30;100.00;100022.70;1742630;81;21103;-48
2022/12/09 07:16:51;;;;;;;11.05;7.40;;;;;;;2.31;100.00;100012.41;1744318;80;20977;-39
2022/12/09 07:19:20;;;;;;;16.77;8.03;;;;;;;2.32;100.00;100009.02;1697477;82;21075;-41
2022/12/09 07:21:47;;;;;;;13.60;7.33;;;;;;;2.36;100.00;100006.09;1737459;81;21106;-48
2022/12/09 07:24:14;;;;;;;12.82;7.87;;;;;;;2.42;100.00;100000.22;1740597;81;21082;-49
2022/12/09 07:26:40;;;;;;;15.60;8.85;;;;;;;2.47;100.00;100005.09;1742111;81;21027;-48
2022/12/09 07:29:07;;;;;;;11.70;7.22;;;;;;;2.52;100.00;100004.81;1743247;81;21030;-48
2022/12/09 07:31:34;;;;;;;9.85;6.80;;;;;;;2.56;100.00;100002.78;1739807;81;21057;-48
2022/12/09 07:34:01;;;;;;;9.70;6.75;;;;;;;2.57;100.00;99999.36;1732723;81;21027;-48
2022/12/09 07:36:29;;;;;;;10.90;7.00;;;;;;;2.59;100.00;99993.81;1737881;81;21015;-48
2022/12/09 07:39:01;;;;;;;11.68;7.22;;;;;;;2.64;100.00;99995.69;1742958;81;21733;-47
2022/12/09 07:41:27;;;;;;;9.23;6.65;;;;;;;2.72;100.00;99992.01;1735656;81;21030;-38
2022/12/09 07:43:54;;;;;;;9.18;6.37;;;;;;;2.80;100.00;99991.81;1738690;81;21348;-47
2022/12/09 07:46:22;;;;;;;8.58;5.60;;;;;;;2.87;100.00;99992.84;1741513;81;21472;-47
2022/12/09 07:48:48;;;;;;;9.13;6.37;;;;;;;2.93;100.00;99995.59;1740140;81;21557;-38
2022/12/09 07:51:17;;;;;;;6.62;5.20;;;;;;;2.97;100.00;99998.72;1742866;81;21070;-48
2022/12/09 07:53:45;;;;;;;6.92;5.83;;;;;;;3.00;100.00;100005.23;1739293;81;21115;-49
2022/12/09 07:56:13;;;;;;;4.80;4.30;;;;;;;3.05;100.00;100001.06;1742546;81;21003;-48
2022/12/09 07:58:42;;;;;;;7.00;5.53;;;;;;;3.11;100.00;100001.22;1743173;81;21867;-47
2022/12/09 08:01:19;;;;;;;6.35;4.58;;;;;;;3.14;100.00;100002.60;1739657;81;21066;-38
2022/12/09 10:19:25;;;;;;;36.93;26.45;;;;;;;2.66;100.00;99854.52;1759287;80;23515;-49
2022/12/09 10:21:56;;;;;;;29.48;17.67;;;;;;;2.64;100.00;99854.91;1764174;79;21116;-48
2022/12/09 10:24:34;;;;;;;17.92;11.33;;;;;;;2.66;100.00;99853.22;1747808;79;21778;-49
2022/12/09 10:27:25;;;;;;;12.65;8.45;;;;;;;2.65;100.00;99857.94;1709021;81;21103;-39
2022/12/09 10:30:03;;;;;;;11.15;6.80;;;;;;;2.67;100.00;99855.42;1720842;81;21015;-50
2022/12/09 10:32:39;;;;;;;9.65;7.17;;;;;;;2.72;100.00;99853.80;1727962;81;21150;-39
2022/12/09 10:35:25;;;;;;;23.07;13.22;;;;;;;2.75;100.00;99847.84;1713134;82;20993;-40
2022/12/09 10:38:12;;;;;;;18.15;11.08;;;;;;;2.77;100.00;99847.45;1717415;82;21103;-39
2022/12/09 10:41:12;;;;;;;23.20;15.28;;;;;;;2.81;100.00;99851.87;1724263;82;21055;-49
2022/12/09 10:43:45;;;;;;;27.62;16.07;;;;;;;2.86;100.00;99845.10;1732022;82;21472;-39
2022/12/09 10:46:21;;;;;;;26.30;14.85;;;;;;;2.92;100.00;99834.48;1773738;79;21534;-40
2022/12/09 10:48:54;;;;;;;17.37;10.72;;;;;;;2.99;100.00;99839.80;1769385;80;21523;-49
2022/12/09 10:51:25;;;;;;;19.65;12.53;;;;;;;3.04;100.00;99842.94;1770776;79;20980;-39
2022/12/09 10:53:58;;;;;;;12.25;8.85;;;;;;;3.08;100.00;99838.30;1765881;79;21016;-41
2022/12/09 10:56:31;;;;;;;14.55;10.10;;;;;;;3.11;100.00;99829.73;1697960;83;20960;-50
2022/12/09 10:59:25;;;;;;;14.13;9.90;;;;;;;3.16;100.00;99826.84;1684373;83;21433;-50
2022/12/09 11:02:08;;;;;;;16.35;11.95;;;;;;;3.24;100.00;99829.16;1715706;82;21597;-48
2022/12/09 11:04:40;;;;;;;16.97;11.93;;;;;;;3.32;100.00;99824.17;1723196;82;21542;-39
2022/12/09 11:07:14;;;;;;;14.45;9.68;;;;;;;3.42;100.00;99820.92;1709403;82;21147;-49
2022/12/09 11:09:50;;;;;;;24.60;14.85;;;;;;;3.49;100.00;99822.82;1718468;81;21523;-48
2022/12/09 11:12:35;;;;;;;32.03;19.80;;;;;;;3.49;100.00;99826.70;1717147;82;21983;-49
2022/12/09 11:15:27;;;;;;;31.30;16.00;;;;;;;3.45;100.00;99821.87;1713666;82;21012;-42
2022/12/09 11:18:15;;;;;;;25.97;13.83;;;;;;;3.39;100.00;99815.70;1709856;82;21555;-41
2022/12/09 11:20:41;;;;;;;30.00;15.72;;;;;;;3.34;100.00;99819.47;1720622;82;21550;-39
2022/12/09 11:23:16;;;;;;;23.12;12.07;;;;;;;3.37;100.00;99813.52;1715360;82;21051;-39
2022/12/09 11:26:04;;;;;;;20.92;12.45;;;;;;;3.38;100.00;99808.37;1717803;82;21012;-51
2022/12/09 11:28:34;;;;;;;20.75;10.58;;;;;;;3.37;100.00;99807.92;1715110;82;21577;-50
2022/12/09 11:31:19;;;;;;;13.78;8.88;;;;;;;3.36;100.00;99810.45;1718781;82;21018;-40
2022/12/09 11:33:55;;;;;;;14.53;9.00;;;;;;;3.34;100.00;99806.97;1723136;82;21520;-50
2022/12/09 11:36:27;;;;;;;15.35;8.93;;;;;;;3.30;100.00;99799.55;1721910;82;21323;-50
2022/12/09 11:39:20;;;;;;;18.95;11.00;;;;;;;3.30;100.00;99801.27;1709884;82;21063;-50
2022/12/09 11:44:34;;;;;;;13.22;9.68;;;;;;;3.30;100.00;99788.34;1722461;82;20952;-38
2022/12/09 11:47:06;;;;;;;12.47;8.93;;;;;;;3.29;100.00;99791.77;1717805;82;21071;-48
2022/12/09 11:49:37;;;;;;;16.62;9.98;;;;;;;3.25;100.00;99793.44;1709663;82;21494;-50
2022/12/09 11:52:21;;;;;;;26.68;17.80;;;;;;;3.21;100.00;99789.03;1713124;82;21884;-39
2022/12/09 11:55:10;;;;;;;34.27;17.85;;;;;;;3.20;100.00;99789.45;1718111;82;21696;-50
2022/12/09 11:58:00;;;;;;;27.87;15.38;;;;;;;3.18;100.00;99796.70;1717898;82;22081;-40
2022/12/09 12:00:40;;;;;;;39.05;19.00;;;;;;;3.16;100.00;99790.22;1718602;82;21034;-49
